This is the latest recevied weather packets stored in our database for station/object KD5UMO-1. If no packets are shown the sender has not sent any weather packets the latest 10 day(s).
| Time | Temp. | Humidity | Pressure | Rain* | Wind** | Luminosity | Snow |
|---|---|---|---|---|---|---|---|
| 1777489697 | 17.22° C | 78% | 1014.4 hPa | 0 mm | - | 97 W/m² | - |
| 1777489393 | 17.22° C | 78% | 1014.6 hPa | 0 mm | - | 103 W/m² | - |
| 1777489090 | 17.22° C | 77% | 1014.3 hPa | 0 mm | - | 170 W/m² | - |
| 1777488787 | 17.22° C | 78% | 1014 hPa | 0 mm | - | 321 W/m² | - |
| 1777488485 | 16.67° C | 79% | 1014.3 hPa | 0 mm | - | 299 W/m² | - |
| 1777488183 | 16.67° C | 81% | 1014.6 hPa | 0 mm | - | 193 W/m² | - |
| 1777487880 | 16.67° C | 81% | 1014.8 hPa | 0 mm | - | 124 W/m² | - |
| 1777487578 | 16.11° C | 81% | 1015 hPa | 0 mm | - | 71 W/m² | - |
| 1777487275 | 16.11° C | 82% | 1015.1 hPa | 0 mm | - | 90 W/m² | - |
| 1777486972 | 16.11° C | 82% | 1015.4 hPa | 0 mm | - | 91 W/m² | - |
| 1777486668 | 16.11° C | 82% | 1015.2 hPa | 0 mm | - | 105 W/m² | - |
| 1777486366 | 16.11° C | 82% | 1015.4 hPa | 0 mm | - | 123 W/m² | - |
| 1777486063 | 16.67° C | 83% | 1015.8 hPa | 0 mm | - | 96 W/m² | - |
| 1777485759 | 16.67° C | 83% | 1015.7 hPa | 0 mm | - | 139 W/m² | - |
| 1777485455 | 16.67° C | 82% | 1015.7 hPa | 0 mm | - | 165 W/m² | - |
| 1777485151 | 16.67° C | 80% | 1015.8 hPa | 0 mm | - | 185 W/m² | - |
| 1777484848 | 16.67° C | 80% | 1015.8 hPa | 0 mm | - | 305 W/m² | - |
| 1777484545 | 16.67° C | 81% | 1016.1 hPa | 0 mm | - | 175 W/m² | - |
| 1777484242 | 16.67° C | 81% | 1016.1 hPa | 0 mm | - | 80 W/m² | - |
| 1777483938 | 16.67° C | 80% | 1016.3 hPa | 0 mm | - | 66 W/m² | - |
| 1777483634 | 16.67° C | 79% | 1016.2 hPa | 0 mm | - | 74 W/m² | - |
| 1777483330 | 16.67° C | 78% | 1015.5 hPa | 0 mm | - | 125 W/m² | - |
| 1777483026 | 16.67° C | 79% | 1014.9 hPa | 0 mm | - | 414 W/m² | - |
| 1777482722 | 16.67° C | 80% | 1015.4 hPa | 0 mm | - | 201 W/m² | - |
| 1777482418 | 16.11° C | 81% | 1016.2 hPa | 0 mm | - | 96 W/m² | - |
* Rain latest hour (hover to see other rain measurements)
** Current wind speed in m/s (hover to see current wind gust speed)